Terminal Aerodrome Forecast
Issued by NWS

Home | Current Version | Previous Version | Text Only | Print | Product List | Glossary On
Versions: 1 2 3 4 5 6 7 8 9 10 11 12 13 14 15 16 17 18 19 20 21
939
FTUS41 KCAR 230520
TAFHUL
TAF
KHUL 230520Z 2306/2406 00000KT P6SM SKC
     FM232200 18007KT 6SM -SN OVC040
     FM240000 18009KT 1SM -SN OVC015=

USA.gov is the U.S. government's official web portal to all federal, state and local government web resources and services.